Data for 08/02/2017

Time Sea-Level Adjusted Pressure Absolute Pressure Temperature Relative Humidity Dew Point   
(mb) (inHg) (mb) (inHg) (C) (F) (%) (C) (F)
00:05 1026 30.3 855 25.25 17.5 63.5 34 1.8 35.2
00:10 1026 30.3 855 25.25 17.6 63.7 34 1.6 34.9
00:15 1025 30.27 855 25.25 17.7 63.9 35 2 35.6
00:20 1026 30.3 855 25.25 17.5 63.5 35 2.1 35.8
00:25 1026 30.3 855 25.25 17.5 63.5 36 2.2 36
00:30 1026 30.3 855 25.25 17.3 63.2 36 2.4 36.3
00:35 1026 30.3 855 25.25 17.2 63 36 2.2 35.9
00:40 1026 30.3 855 25.25 17.5 63.4 35 2.1 35.7
00:45 1026 30.3 855 25.25 17.6 63.6 36 2.4 36.3
00:50 1026 30.3 855 25.25 17.5 63.5 37 2.7 36.8
00:55 1026 30.3 855 25.25 17.3 63.1 37 2.5 36.5
01:00 1026 30.3 855 25.25 17.2 63 37 2.7 36.8
01:05 1026 30.3 855 25.25 17.2 63 38 2.8 37.1
01:10 1026 30.3 855 25.25 17.1 62.7 38 2.9 37.2
01:15 1026 30.3 855 25.25 16.7 62.1 41 3.6 38.4
01:20 1026 30.3 855 25.25 16.2 61.1 42 3.5 38.3
01:25 1026 30.3 855 25.25 16.1 61 42 3.4 38
01:30 1026 30.3 855 25.25 16.2 61.2 42 3.4 38
01:35 1026 30.3 855 25.25 16.4 61.5 40 2.8 37
01:40 1026 30.3 855 25.25 16.7 62.1 40 3.2 37.8
01:45 1026 30.3 855 25.25 16.6 61.9 41 3.3 37.9
01:50 1026 30.3 855 25.25 16.4 61.6 41 3.3 38
01:55 1026 30.3 855 25.25 16.5 61.6 40 3 37.4
02:00 1026 30.3 855 25.25 16.5 61.8 40 3.1 37.5
02:05 1026 30.3 855 25.25 16.5 61.8 40 2.9 37.2
02:10 1026 30.3 855 25.25 16.7 62 39 2.7 36.9
02:15 1026 30.3 855 25.25 17 62.5 39 3 37.4
02:20 1026 30.3 855 25.25 16.7 62.1 40 3.2 37.8
02:25 1026 30.3 855 25.25 16.4 61.4 41 3.1 37.5
02:30 1026 30.3 855 25.25 16.3 61.3 41 3.2 37.7
02:35 1026 30.3 855 25.25 16.2 61.2 41 3.2 37.7
02:40 1026 30.3 855 25.25 16 60.8 42 3.3 38
02:45 1026 30.3 855 25.25 15.8 60.4 43 3.4 38.2
02:50 1026 30.3 855 25.25 15.5 59.9 44 3.5 38.3
02:55 1026 30.3 855 25.25 15.3 59.6 45 3.6 38.5
03:00 1026 30.3 855 25.25 14.9 58.8 47 3.9 39
03:05 1026 30.3 855 25.25 14.6 58.3 47 3.6 38.4
03:10 1026 30.3 855 25.25 14.7 58.5 46 3.3 37.9
03:15 1026 30.3 855 25.25 15 59.1 45 3.2 37.8
03:20 1026 30.3 856 25.28 15.2 59.3 45 3.4 38.1
03:25 1026 30.3 856 25.28 15.3 59.5 44 3.3 37.9
03:30 1027 30.33 856 25.28 15.3 59.6 42 2.7 36.8
03:35 1027 30.33 856 25.28 15.9 60.6 42 3.1 37.6
03:40 1027 30.33 856 25.28 15.7 60.2 44 3.4 38.2
03:45 1027 30.33 856 25.28 15.5 59.9 44 3.4 38.2
03:50 1027 30.33 856 25.28 15.1 59.2 46 3.8 38.8
03:55 1027 30.33 856 25.28 14.3 57.8 49 3.9 39.1
04:00 1027 30.33 856 25.28 14.1 57.3 49 3.6 38.4
04:05 1027 30.33 856 25.28 14.2 57.5 49 3.7 38.7
04:10 1027 30.33 856 25.28 14 57.2 50 3.9 39
04:15 1027 30.33 856 25.28 14 57.2 49 3.5 38.4
04:20 1027 30.33 856 25.28 14.2 57.6 48 3.4 38.1
04:25 1027 30.33 856 25.28 14.6 58.4 48 3.8 38.9
04:30 1027 30.33 856 25.28 14.7 58.4 49 4.2 39.6
04:35 1027 30.33 856 25.28 14.9 58.9 49 4.5 40.1
04:40 1027 30.33 856 25.28 14.8 58.7 50 4.6 40.3
04:45 1027 30.33 856 25.28 15 58.9 50 4.7 40.4
04:50 1027 30.33 856 25.28 14.9 58.8 50 4.6 40.3
04:55 1027 30.33 856 25.28 14.7 58.5 50 4.6 40.3
05:00 1027 30.33 856 25.28 14.6 58.2 51 4.7 40.4
05:05 1027 30.33 856 25.28 14.6 58.2 52 4.9 40.9
05:10 1027 30.33 857 25.31 14.5 58 53 5 41
05:15 1027 30.33 857 25.31 14.3 57.8 54 5.2 41.4
05:20 1028 30.36 857 25.31 14.1 57.3 54 5 41
05:25 1028 30.36 857 25.31 13.8 56.9 55 5.1 41.2
05:30 1028 30.36 857 25.31 13.7 56.7 56 5.1 41.3
05:35 1028 30.36 857 25.31 13.6 56.4 57 5.4 41.7
05:40 1028 30.36 857 25.31 13.5 56.2 59 5.8 42.4
05:45 1028 30.36 857 25.31 13.2 55.8 61 5.9 42.5
05:50 1028 30.36 857 25.31 13.2 55.7 62 6.1 43
05:55 1028 30.36 857 25.31 13.3 55.9 62 6.2 43.1
06:00 1028 30.36 857 25.31 13.3 55.9 62 6.2 43.1
06:05 1028 30.36 857 25.31 13.2 55.8 62 6.2 43.2
06:10 1028 30.36 857 25.31 13.3 55.9 63 6.4 43.5
06:15 1028 30.36 857 25.31 13.4 56.2 63 6.7 44
06:20 1028 30.36 857 25.31 13.5 56.4 62 6.6 43.8
06:25 1028 30.36 857 25.31 13.6 56.5 63 6.8 44.2
06:30 1028 30.36 857 25.31 13.7 56.6 63 6.9 44.5
06:35 1028 30.36 858 25.34 13.9 57.1 64 7.3 45.1
06:40 1028 30.36 858 25.34 14 57.2 65 7.6 45.7
06:45 1028 30.36 858 25.34 14.1 57.4 65 7.6 45.7
06:50 1029 30.39 858 25.34 14.2 57.6 65 7.8 46
06:55 1029 30.39 858 25.34 14.5 58 64 7.7 45.9
07:00 1029 30.39 858 25.34 14.7 58.4 64 8 46.3
07:05 1029 30.39 858 25.34 14.5 58.1 64 7.9 46.2
07:10 1029 30.39 858 25.34 14.5 58.2 65 8 46.5
07:15 1029 30.39 858 25.34 14.5 58.1 64 7.7 45.9
07:20 1029 30.39 858 25.34 14.7 58.4 63 7.8 46.1
07:25 1029 30.39 858 25.34 14.4 58 64 7.7 45.9
07:30 1029 30.39 858 25.34 14.9 58.8 62 7.6 45.8
07:35 1029 30.39 858 25.34 14.8 58.6 64 8 46.4
07:40 1029 30.39 858 25.34 14.8 58.6 62 7.5 45.5
07:45 1029 30.39 858 25.34 15.3 59.5 61 7.8 46
07:50 1029 30.39 858 25.34 15.2 59.4 60 7.5 45.6
07:55 1029 30.39 858 25.34 15.4 59.6 60 7.7 45.8
08:00 1029 30.39 858 25.34 15.3 59.6 60 7.7 45.8
08:05 1029 30.39 858 25.34 15.4 59.6 59 7.5 45.4
08:10 1029 30.39 858 25.34 15.6 60 58 7.3 45.2
08:15 1029 30.39 858 25.34 15.6 60 57 7.2 45
08:20 1029 30.39 858 25.34 15.9 60.6 55 7 44.6
08:25 1029 30.39 858 25.34 15.7 60.3 57 7.3 45.2
08:30 1029 30.39 858 25.34 16.1 60.9 55 7.1 44.7
08:35 1029 30.39 858 25.34 16.3 61.4 54 7.1 44.8
08:40 1029 30.39 858 25.34 16.9 62.3 53 7.4 45.3
08:45 1029 30.39 858 25.34 16.5 61.7 55 7.6 45.7
08:50 1029 30.39 858 25.34 16.5 61.7 57 8 46.4
08:55 1029 30.39 858 25.34 16.2 61.1 56 7.4 45.3
09:00 1029 30.39 858 25.34 16.4 61.5 55 7.4 45.4
09:05 1029 30.39 858 25.34 16.6 62 54 7.5 45.4
09:10 1029 30.39 858 25.34 17 62.5 53 7.4 45.2
09:15 1029 30.39 858 25.34 17.3 63.1 51 7.2 44.9
09:20 1029 30.39 858 25.34 17.8 64 51 7.7 45.9
09:25 1029 30.39 858 25.34 17.6 63.7 51 7.4 45.4
09:30 1029 30.39 858 25.34 17.8 64 49 6.9 44.4
09:35 1029 30.39 858 25.34 17.4 63.3 50 6.9 44.4
09:40 1029 30.39 858 25.34 17.2 63 51 7 44.6
09:45 1029 30.39 858 25.34 17.2 62.9 50 6.8 44.3
09:50 1029 30.39 858 25.34 17.3 63.1 49 6.7 44.1
09:55 1029 30.39 858 25.34 17.7 63.9 48 6.6 43.9
10:00 1029 30.39 858 25.34 17.2 63 49 6.4 43.5
10:05 1029 30.39 858 25.34 17.5 63.5 48 6.5 43.7
10:10 1028 30.36 858 25.34 17.7 63.8 49 6.9 44.4
10:15 1028 30.36 858 25.34 17.9 64.2 47 6.4 43.5
10:20 1028 30.36 858 25.34 18 64.4 46 6.3 43.4
10:25 1028 30.36 858 25.34 18.1 64.5 46 6.4 43.5
10:30 1028 30.36 858 25.34 17.9 64.1 46 6.2 43.1
10:35 1028 30.36 858 25.34 17.9 64.3 46 6.4 43.5
10:40 1028 30.36 857 25.31 18.4 65.1 45 6.3 43.3
10:45 1028 30.36 857 25.31 18.5 65.3 46 6.7 44.1
10:50 1028 30.36 857 25.31 18.1 64.6 46 6.6 43.9
10:55 1028 30.36 857 25.31 18.2 64.8 46 6.6 43.9
11:00 1028 30.36 857 25.31 18.3 64.9 46 6.5 43.7
11:05 1028 30.36 857 25.31 18.3 65 45 6.4 43.6
11:10 1028 30.36 857 25.31 18.7 65.6 46 7.1 44.7
11:15 1028 30.36 857 25.31 18.9 66 45 6.9 44.4
11:20 1028 30.36 857 25.31 18.8 65.9 45 6.9 44.5
11:25 1028 30.36 857 25.31 18.6 65.5 45 6.5 43.8
11:30 1028 30.36 857 25.31 18.9 65.9 45 6.7 44
11:35 1028 30.36 857 25.31 19.2 66.6 44 6.7 44.1
11:40 1028 30.36 857 25.31 19.2 66.5 44 6.9 44.4
11:45 1028 30.36 857 25.31 18.9 66 46 7.3 45.1
11:50 1028 30.36 857 25.31 18.9 66 45 6.9 44.4
11:55 1028 30.36 857 25.31 19.1 66.4 45 7.1 44.9
12:00 1028 30.36 857 25.31 19.1 66.4 45 7.2 44.9
12:05 1028 30.36 857 25.31 19.1 66.4 44 6.6 43.9
12:10 1028 30.36 857 25.31 19.6 67.2 44 7.2 45
12:15 1028 30.36 857 25.31 19.7 67.4 45 7.4 45.3
12:20 1028 30.36 857 25.31 19.5 67.1 43 6.8 44.3
12:25 1027 30.33 857 25.31 19.4 67 45 7.3 45.2
12:30 1027 30.33 857 25.31 19.4 67 44 6.9 44.3
12:35 1027 30.33 857 25.31 19.8 67.6 44 7.3 45.1
12:40 1027 30.33 857 25.31 20 68 43 7.2 44.9
12:45 1027 30.33 857 25.31 20.1 68.2 43 7.4 45.3
12:50 1027 30.33 857 25.31 19.7 67.5 44 7.3 45.1
12:55 1027 30.33 857 25.31 19.8 67.6 44 7.4 45.4
13:00 1027 30.33 857 25.31 20.2 68.3 42 7.1 44.8
13:05 1027 30.33 856 25.28 19.7 67.5 44 7.2 45
13:10 1027 30.33 856 25.28 19.6 67.2 44 7.2 45
13:15 1027 30.33 856 25.28 19.8 67.6 43 7 44.5
13:20 1027 30.33 856 25.28 20 68 43 7.3 45.1
13:25 1027 30.33 856 25.28 20.3 68.6 43 7.4 45.4
13:30 1027 30.33 856 25.28 20.5 68.8 42 7.4 45.4
13:35 1027 30.33 856 25.28 20.4 68.8 42 7.1 44.8
13:40 1027 30.33 856 25.28 20.4 68.7 42 7.3 45.1
13:45 1027 30.33 856 25.28 20.6 69.1 41 7.1 44.9
13:50 1027 30.33 856 25.28 21.1 70 40 7.3 45.1
13:55 1027 30.33 856 25.28 20.9 69.5 40 7 44.6
14:00 1027 30.33 856 25.28 21.2 70.2 41 7.6 45.6
14:05 1027 30.33 856 25.28 21 69.9 41 7.4 45.4
14:10 1027 30.33 856 25.28 21.4 70.6 40 7.3 45.1
14:15 1027 30.33 856 25.28 21.1 70 41 7.6 45.8
14:20 1027 30.33 856 25.28 20.9 69.6 41 7.3 45.1
14:25 1027 30.33 856 25.28 21.3 70.4 40 7.5 45.5
14:30 1027 30.33 856 25.28 21.3 70.3 39 7.1 44.7
14:35 1027 30.33 856 25.28 21.2 70.1 40 7.4 45.2
14:40 1027 30.33 856 25.28 21 69.8 40 7.2 45
14:45 1027 30.33 856 25.28 21.2 70.1 40 7.2 45
14:50 1027 30.33 856 25.28 21.2 70.1 39 7 44.6
14:55 1027 30.33 856 25.28 21.1 69.9 39 6.9 44.5
15:00 1027 30.33 856 25.28 21 69.8 41 7.3 45.2
15:05 1027 30.33 856 25.28 21.1 69.9 40 7.1 44.7
15:10 1026 30.3 856 25.28 21 69.7 40 7.2 45
15:15 1026 30.3 856 25.28 21.1 70 40 7.1 44.9
15:20 1026 30.3 856 25.28 21.2 70.1 40 7.3 45.1
15:25 1026 30.3 856 25.28 21.1 70 40 7.3 45.2
15:30 1026 30.3 856 25.28 21 69.9 40 7 44.6
15:35 1026 30.3 856 25.28 20.9 69.7 40 7 44.7
15:40 1026 30.3 855 25.25 20.8 69.5 41 7.1 44.8
15:45 1026 30.3 855 25.25 20.6 69.1 40 6.9 44.4
15:50 1026 30.3 855 25.25 20.9 69.6 40 7.1 44.8
15:55 1026 30.3 855 25.25 20.8 69.4 41 7.1 44.8
16:00 1026 30.3 855 25.25 20.5 68.9 41 6.8 44.3
16:05 1026 30.3 855 25.25 20.6 69 40 6.8 44.3
16:10 1026 30.3 855 25.25 20.6 69.1 41 7.1 44.8
16:15 1026 30.3 855 25.25 20.5 68.8 41 6.9 44.5
16:20 1026 30.3 855 25.25 20.4 68.7 42 7.2 44.9
16:25 1026 30.3 855 25.25 20.3 68.5 42 7 44.7
16:30 1026 30.3 855 25.25 20.3 68.5 42 7 44.5
16:35 1026 30.3 855 25.25 20.1 68.2 43 7.2 45
16:40 1026 30.3 855 25.25 20.1 68.1 42 7 44.6
16:45 1026 30.3 855 25.25 19.9 67.7 43 7.1 44.8
16:50 1026 30.3 855 25.25 19.7 67.4 44 7.2 44.9
16:55 1026 30.3 855 25.25 19.5 67.1 44 7 44.5
17:00 1026 30.3 855 25.25 19.5 67.1 44 7 44.6
17:05 1026 30.3 855 25.25 19.5 67.1 44 6.9 44.5
17:10 1026 30.3 855 25.25 19.4 66.9 44 6.9 44.4
17:15 1026 30.3 855 25.25 19.4 66.9 44 7.1 44.7
17:20 1026 30.3 855 25.25 19.3 66.7 45 7.1 44.8
17:25 1026 30.3 855 25.25 19.2 66.5 45 7.1 44.7
17:30 1026 30.3 855 25.25 19.1 66.3 45 7.1 44.7
17:35 1026 30.3 855 25.25 18.9 66.1 45 7 44.6
17:40 1026 30.3 855 25.25 18.9 66.1 46 7.1 44.7
17:45 1026 30.3 855 25.25 18.9 66 46 7.1 44.9
17:50 1026 30.3 855 25.25 18.8 65.8 46 7.1 44.8
17:55 1026 30.3 855 25.25 18.7 65.6 46 7 44.7
18:00 1026 30.3 855 25.25 18.6 65.5 47 7.2 44.9
18:05 1026 30.3 855 25.25 18.5 65.3 47 7.1 44.8
18:10 1026 30.3 855 25.25 18.4 65.1 48 7.2 44.9
18:15 1026 30.3 855 25.25 18.3 65 48 7.3 45.2
18:20 1026 30.3 855 25.25 18.2 64.8 48 7.3 45.1
18:25 1026 30.3 855 25.25 18.1 64.6 49 7.3 45.1
18:30 1026 30.3 855 25.25 18 64.3 49 7.2 45
18:35 1026 30.3 855 25.25 17.8 64 49 7.2 45
18:40 1026 30.3 855 25.25 17.7 63.9 50 7.3 45.1
18:45 1026 30.3 855 25.25 17.6 63.7 50 7.2 45
18:50 1026 30.3 855 25.25 17.5 63.5 51 7.3 45.2
18:55 1026 30.3 855 25.25 17.4 63.2 51 7.3 45.1
19:00 1026 30.3 855 25.25 17.2 63 51 7.2 44.9
19:05 1026 30.3 855 25.25 17.1 62.8 52 7.2 44.9
19:10 1026 30.3 855 25.25 17 62.5 52 7.2 44.9
19:15 1026 30.3 855 25.25 16.9 62.4 52 7.2 44.9
19:20 1026 30.3 855 25.25 16.8 62.2 53 7.2 45
19:25 1026 30.3 856 25.28 16.7 62 53 7.1 44.9
19:30 1026 30.3 856 25.28 16.6 61.8 53 7.1 44.9
19:35 1026 30.3 856 25.28 16.4 61.6 54 7.2 44.9
19:40 1026 30.3 856 25.28 16.4 61.4 54 7.2 44.9
19:45 1026 30.3 856 25.28 16.3 61.3 54 7.1 44.8
19:50 1026 30.3 856 25.28 16.2 61.2 55 7.2 44.9
19:55 1026 30.3 856 25.28 16.1 61 55 7.1 44.9
20:00 1027 30.33 856 25.28 16.1 60.9 55 7.1 44.8
20:05 1027 30.33 856 25.28 16 60.8 55 7.1 44.9
20:10 1027 30.33 856 25.28 15.9 60.6 56 7.2 44.9
20:15 1027 30.33 856 25.28 15.8 60.5 56 7.1 44.8
20:20 1027 30.33 856 25.28 15.7 60.3 56 7.1 44.9
20:25 1027 30.33 856 25.28 15.7 60.2 56 7.1 44.8
20:30 1027 30.33 856 25.28 15.6 60.1 57 7.1 44.8
20:35 1027 30.33 856 25.28 15.6 60.1 57 7.1 44.8
20:40 1027 30.33 856 25.28 15.6 60 57 7.1 44.8
20:45 1027 30.33 856 25.28 15.5 59.9 57 7.1 44.9
20:50 1027 30.33 856 25.28 15.4 59.8 57 7 44.6
20:55 1027 30.33 856 25.28 15.5 59.9 57 7 44.6
21:00 1027 30.33 856 25.28 15.5 59.8 57 7 44.7
21:05 1027 30.33 856 25.28 15.4 59.6 57 7 44.6
21:10 1027 30.33 856 25.28 15.3 59.5 57 7 44.6
21:15 1027 30.33 856 25.28 15.3 59.5 57 7 44.5
21:20 1027 30.33 856 25.28 15.3 59.5 57 7 44.6
21:25 1027 30.33 856 25.28 15.3 59.6 57 7 44.6
21:30 1027 30.33 856 25.28 15.3 59.5 58 7.1 44.8
21:35 1027 30.33 856 25.28 15.2 59.3 58 7.1 44.8
21:40 1027 30.33 856 25.28 15.1 59.1 58 7.1 44.7
21:45 1027 30.33 856 25.28 15.1 59.2 58 7 44.7
21:50 1027 30.33 856 25.28 15.1 59.1 58 7 44.6
21:55 1027 30.33 857 25.31 15 59.1 59 7.1 44.8
22:00 1027 30.33 857 25.31 14.9 58.8 59 7.1 44.8
22:05 1027 30.33 857 25.31 14.8 58.6 60 7.1 44.7
22:10 1027 30.33 857 25.31 14.7 58.4 60 7.1 44.8
22:15 1027 30.33 857 25.31 14.5 58.1 61 7.2 44.9
22:20 1027 30.33 857 25.31 14.4 57.9 61 7.1 44.8
22:25 1027 30.33 857 25.31 14.4 57.8 61 7.1 44.8
22:30 1027 30.33 857 25.31 14.4 57.8 61 7.1 44.8
22:35 1027 30.33 857 25.31 14.4 57.9 61 7.1 44.8
22:40 1027 30.33 857 25.31 14.4 57.9 61 7.1 44.8
22:45 1027 30.33 857 25.31 14.4 57.8 62 7.2 45
22:50 1027 30.33 857 25.31 14.3 57.7 62 7.2 45
22:55 1027 30.33 857 25.31 14.3 57.7 62 7.2 45
23:00 1027 30.33 857 25.31 14.3 57.7 62 7.2 45
23:05 1027 30.33 857 25.31 14.3 57.7 63 7.3 45.2
23:10 1027 30.33 857 25.31 14.3 57.7 63 7.3 45.1
23:15 1027 30.33 857 25.31 14.3 57.7 63 7.4 45.3
23:20 1027 30.33 857 25.31 14.2 57.6 63 7.4 45.4
23:25 1027 30.33 857 25.31 14.1 57.4 64 7.5 45.5
23:30 1027 30.33 857 25.31 14 57.1 65 7.5 45.5
23:35 1027 30.33 857 25.31 13.8 56.9 65 7.5 45.5
23:40 1027 30.33 857 25.31 13.8 56.8 66 7.5 45.5
23:45 1027 30.33 857 25.31 13.6 56.5 66 7.5 45.5
23:50 1027 30.33 857 25.31 13.6 56.4 66 7.4 45.4
23:55 1027 30.33 856 25.28 13.6 56.4 66 7.5 45.5
24:00 1027 30.33 857 25.31 13.5 56.3 67 7.5 45.5